Time;durP1;ratioP1;P1;durP2;ratioP2;P2;SDS_P1;SDS_P2;PMS_P1;PMS_P2;Temp;Humidity;BMP_temperature;BMP_pressure;BME280_temperature;BME280_humidity;BME280_pressure;Samples;Min_cycle;Max_cycle;Signal;HPM_P1;HPM_P2
2023/01/11 00:01:37;;;;;;;2.00;0.98;;;;;;;7.50;32.52;94795.44;5041472;28;20142;-85
2023/01/11 00:04:02;;;;;;;2.08;0.90;;;;;;;7.11;33.56;94789.31;5041428;28;20036;-85
2023/01/11 00:06:28;;;;;;;2.55;0.90;;;;;;;7.48;32.13;94796.69;5041166;28;20025;-84
2023/01/11 00:08:55;;;;;;;3.38;1.10;;;;;;;7.68;31.21;94796.22;5041335;28;20028;-84
2023/01/11 00:11:20;;;;;;;1.48;0.90;;;;;;;7.70;31.29;94791.53;5041463;28;20031;-84
2023/01/11 00:13:46;;;;;;;3.05;1.25;;;;;;;7.66;31.35;94800.06;5041183;28;20025;-84
2023/01/11 00:16:11;;;;;;;4.95;1.17;;;;;;;7.87;31.12;94799.38;5024759;28;20445;-84
2023/01/11 00:18:37;;;;;;;2.60;1.35;;;;;;;7.97;30.71;94797.94;5024797;28;20124;-84
2023/01/11 00:21:04;;;;;;;3.60;1.40;;;;;;;7.63;32.56;94802.13;5041139;28;20025;-84
2023/01/11 00:23:31;;;;;;;3.28;1.20;;;;;;;7.59;31.30;94806.25;5041057;28;20032;-84
2023/01/11 00:25:56;;;;;;;4.32;1.27;;;;;;;7.61;31.14;94803.41;5040824;28;20066;-84
2023/01/11 00:28:22;;;;;;;3.20;1.23;;;;;;;7.71;30.23;94798.34;5040592;28;20029;-84
2023/01/11 00:30:48;;;;;;;2.72;1.23;;;;;;;7.76;31.20;94800.25;5040991;28;20028;-84
2023/01/11 00:33:13;;;;;;;2.47;1.08;;;;;;;7.75;31.90;94803.88;5040768;28;20048;-84
2023/01/11 00:35:39;;;;;;;1.92;0.98;;;;;;;7.48;32.04;94807.09;5024476;28;20060;-84
2023/01/11 00:38:04;;;;;;;2.63;1.20;;;;;;;6.98;32.89;94790.38;5040742;28;20438;-84
2023/01/11 00:40:30;;;;;;;2.80;1.10;;;;;;;7.18;33.88;94795.97;5040783;28;20109;-84
2023/01/11 00:47:55;;;;;;;2.42;1.20;;;;;;;7.28;31.84;94812.78;5043427;28;20243;-84
2023/01/11 00:48:43;;;;;;;3.00;1.08;;;;;;;7.20;32.01;94806.94;5045872;28;20358;-84
2023/01/11 00:51:09;;;;;;;2.92;1.20;;;;;;;7.31;31.73;94807.09;5024281;28;20036;-84
2023/01/11 00:53:42;;;;;;;3.38;1.30;;;;;;;7.51;31.37;94809.25;5024215;28;20033;-84
2023/01/11 00:56:07;;;;;;;1.77;1.08;;;;;;;7.14;32.94;94807.06;5040543;28;20086;-84
2023/01/11 00:58:33;;;;;;;2.95;1.30;;;;;;;7.21;32.25;94803.31;5024118;28;20037;-84
2023/01/11 01:01:04;;;;;;;1.55;0.70;;;;;;;7.26;32.04;94807.00;5040414;28;20426;-84
2023/01/11 01:03:30;;;;;;;4.10;0.90;;;;;;;7.03;32.57;94804.28;5024049;28;20029;-84
2023/01/11 01:05:55;;;;;;;1.60;0.77;;;;;;;6.98;33.88;94819.84;5040208;28;20066;-84
2023/01/11 01:08:21;;;;;;;2.70;1.20;;;;;;;7.02;32.18;94813.13;5040365;28;20119;-84
2023/01/11 01:10:50;;;;;;;2.05;1.02;;;;;;;7.21;31.94;94815.53;5057965;28;20028;-85
2023/01/11 01:15:59;;;;;;;2.03;0.88;;;;;;;7.39;31.22;94814.53;5042574;28;20099;-84
2023/01/11 01:18:25;;;;;;;2.35;0.88;;;;;;;7.47;30.74;94813.34;5040062;28;20025;-84
2023/01/11 01:20:50;;;;;;;1.67;0.88;;;;;;;7.60;30.29;94813.03;5023627;28;20078;-84
2023/01/11 01:23:16;;;;;;;1.30;0.68;;;;;;;7.62;29.95;94810.22;5057729;28;20036;-84
2023/01/11 01:25:41;;;;;;;2.45;0.90;;;;;;;7.48;31.71;94810.53;5039902;28;20021;-84
2023/01/11 01:28:07;;;;;;;1.42;0.65;;;;;;;7.46;30.65;94809.97;5057807;28;20431;-84
2023/01/11 01:30:32;;;;;;;1.88;0.68;;;;;;;7.37;32.85;94811.38;5040059;28;20025;-84
2023/01/11 01:32:58;;;;;;;1.38;0.63;;;;;;;7.26;30.63;94815.63;5039805;28;20028;-86
2023/01/11 01:35:23;;;;;;;0.60;0.38;;;;;;;6.97;34.63;94818.25;5039826;28;20044;-84
2023/01/11 01:37:48;;;;;;;6.82;1.10;;;;;;;6.96;34.31;94814.06;5057373;28;20025;-84
2023/01/11 01:40:14;;;;;;;1.15;0.70;;;;;;;6.89;35.44;94806.41;5038903;28;20037;-84
2023/01/11 01:42:39;;;;;;;0.90;0.52;;;;;;;6.84;35.51;94813.31;5023369;28;20489;-84
2023/01/11 01:45:26;;;;;;;2.50;1.27;;;;;;;6.89;33.91;94809.00;5023201;28;20427;-84
2023/01/11 01:48:00;;;;;;;2.28;1.13;;;;;;;6.82;33.06;94802.34;5057054;28;20025;-84
2023/01/11 01:50:45;;;;;;;3.60;1.35;;;;;;;6.80;32.79;94797.38;5039495;28;20127;-84
2023/01/11 01:53:19;;;;;;;1.85;0.82;;;;;;;6.80;33.67;94794.75;5039364;28;20029;-84
2023/01/11 01:55:48;;;;;;;2.17;0.90;;;;;;;6.89;32.27;94800.38;5057322;28;20028;-84
2023/01/11 01:58:16;;;;;;;1.42;0.47;;;;;;;7.04;31.27;94790.22;5039276;28;20072;-84
2023/01/11 02:00:43;;;;;;;4.90;0.52;;;;;;;7.17;30.98;94794.38;5057037;28;20032;-84
2023/01/11 02:03:11;;;;;;;2.28;0.60;;;;;;;7.34;30.18;94788.38;5023252;28;20056;-84
2023/01/11 02:05:36;;;;;;;0.95;0.60;;;;;;;7.49;29.72;94791.25;5039409;28;20021;-84
2023/01/11 02:08:04;;;;;;;0.57;0.43;;;;;;;7.52;30.32;94787.34;5038947;28;20123;-84
2023/01/11 02:10:31;;;;;;;0.63;0.50;;;;;;;7.36;30.89;94781.13;5039149;28;20036;-84
2023/01/11 02:12:59;;;;;;;0.30;0.30;;;;;;;7.93;29.24;94779.34;5039040;28;20029;-84
2023/01/11 02:15:25;;;;;;;0.88;0.52;;;;;;;8.01;28.70;94775.53;5039039;28;20135;-84
2023/01/11 02:17:50;;;;;;;2.22;0.30;;;;;;;7.91;30.96;94779.59;5038908;28;20104;-84
2023/01/11 02:20:42;;;;;;;0.40;0.40;;;;;;;7.77;30.57;94776.53;5023018;28;20123;-84
2023/01/11 02:23:45;;;;;;;1.55;0.40;;;;;;;7.75;29.80;94768.16;4993732;28;20033;-84
2023/01/11 02:26:35;;;;;;;0.73;0.30;;;;;;;7.50;31.69;94761.53;5056584;28;20427;-84
2023/01/11 02:29:03;;;;;;;0.55;0.50;;;;;;;7.31;31.87;94762.78;5056573;28;20032;-84
2023/01/11 02:31:48;;;;;;;1.45;0.47;;;;;;;7.32;32.23;94759.16;5056938;28;20032;-84
2023/01/11 02:34:16;;;;;;;0.28;0.25;;;;;;;7.04;32.53;94758.19;5038847;28;20029;-84
2023/01/11 02:37:11;;;;;;;1.08;0.40;;;;;;;7.04;31.01;94756.38;5056476;28;20437;-85
2023/01/11 02:39:58;;;;;;;2.25;0.60;;;;;;;7.18;30.08;94761.28;5038756;28;20021;-84
2023/01/11 02:45:21;;;;;;;1.00;0.30;;;;;;;7.21;29.51;94751.19;5041489;28;20031;-84
2023/01/11 02:47:56;;;;;;;0.45;0.43;;;;;;;7.52;29.05;94747.47;5038778;28;20384;-85
2023/01/11 02:50:28;;;;;;;1.00;0.60;;;;;;;7.44;30.06;94746.81;5039382;28;20021;-84
2023/01/11 02:53:17;;;;;;;5.03;2.10;;;;;;;7.60;29.90;94747.84;5042967;28;20056;-84
2023/01/11 02:55:47;;;;;;;0.45;0.40;;;;;;;7.56;29.21;94746.75;5042356;28;20056;-84
2023/01/11 02:58:15;;;;;;;1.75;0.50;;;;;;;7.16;31.62;94742.47;5042851;28;20065;-84
2023/01/11 03:00:40;;;;;;;0.47;0.28;;;;;;;7.02;30.54;94744.59;5042520;28;20036;-84
2023/01/11 03:03:17;;;;;;;0.55;0.30;;;;;;;7.08;30.74;94741.84;5025862;28;20438;-84
2023/01/11 03:05:55;;;;;;;1.45;0.52;;;;;;;7.15;29.84;94738.31;5022759;28;20026;-84
2023/01/11 03:08:24;;;;;;;1.27;0.50;;;;;;;7.09;30.12;94740.03;5022696;28;20070;-84
2023/01/11 03:11:09;;;;;;;1.48;0.70;;;;;;;7.27;31.11;94746.03;5040339;28;20138;-84
2023/01/11 03:14:13;;;;;;;5.07;0.43;;;;;;;7.22;30.87;94738.91;5006433;28;20116;-84
2023/01/11 03:16:50;;;;;;;1.40;0.47;;;;;;;7.32;29.23;94738.31;4999410;28;20048;-84
2023/01/11 03:19:31;;;;;;;0.32;0.30;;;;;;;7.46;29.63;94744.78;5035944;28;20035;-84
2023/01/11 03:22:25;;;;;;;1.00;0.32;;;;;;;7.17;29.82;94731.84;5042297;28;20032;-84
2023/01/11 03:24:59;;;;;;;0.90;0.50;;;;;;;7.26;29.08;94732.22;5028447;28;20103;-84
2023/01/11 03:28:00;;;;;;;0.65;0.30;;;;;;;7.62;28.44;94730.16;5042047;28;20079;-84
2023/01/11 03:30:35;;;;;;;3.67;0.57;;;;;;;7.76;28.71;94728.00;5042118;28;20072;-84
2023/01/11 03:33:36;;;;;;;0.70;0.47;;;;;;;7.76;29.06;94730.63;5042033;28;20120;-84
2023/01/11 03:36:17;;;;;;;0.57;0.40;;;;;;;7.69;28.17;94729.97;5036920;28;20045;-84
2023/01/11 03:38:53;;;;;;;0.68;0.30;;;;;;;7.55;29.74;94732.13;5041969;28;20029;-84
2023/01/11 03:41:23;;;;;;;0.45;0.32;;;;;;;7.42;29.53;94738.44;5025594;28;20036;-84
2023/01/11 03:43:49;;;;;;;0.85;0.40;;;;;;;7.39;29.61;94740.75;5025519;28;20071;-84
2023/01/11 03:46:18;;;;;;;1.10;0.43;;;;;;;7.20;30.05;94741.78;5025267;28;20031;-84
2023/01/11 03:48:45;;;;;;;2.22;0.30;;;;;;;7.34;28.99;94736.25;5041742;28;20032;-84
2023/01/11 03:51:13;;;;;;;0.47;0.32;;;;;;;7.70;28.75;94736.00;5059809;28;20121;-84
2023/01/11 03:53:43;;;;;;;0.50;0.30;;;;;;;7.71;28.84;94729.75;5041659;28;20427;-84
2023/01/11 03:56:10;;;;;;;1.10;0.40;;;;;;;7.54;29.14;94727.97;5025037;28;20033;-84
2023/01/11 03:58:36;;;;;;;0.50;0.20;;;;;;;7.39;29.71;94731.13;5041489;28;20091;-84
2023/01/11 04:01:02;;;;;;;0.50;0.32;;;;;;;7.42;28.97;94728.03;5024851;28;20056;-84
2023/01/11 04:03:27;;;;;;;0.60;0.38;;;;;;;7.49;29.09;94730.47;5040782;28;20082;-84
2023/01/11 04:05:57;;;;;;;0.60;0.32;;;;;;;7.62;29.00;94722.31;5041307;28;20052;-84
2023/01/11 04:08:22;;;;;;;0.93;0.40;;;;;;;7.42;29.36;94716.81;5041569;28;20029;-84
2023/01/11 04:10:48;;;;;;;0.88;0.50;;;;;;;7.16;29.03;94719.81;5024692;28;20039;-84
2023/01/11 04:13:13;;;;;;;1.60;0.40;;;;;;;7.19;29.65;94721.16;5041298;28;20035;-84
2023/01/11 04:15:39;;;;;;;0.60;0.40;;;;;;;6.89;30.10;94724.84;5025161;28;20202;-84
2023/01/11 04:18:04;;;;;;;0.55;0.50;;;;;;;7.20;28.57;94730.56;5024732;28;20024;-85
2023/01/11 04:20:39;;;;;;;0.80;0.20;;;;;;;7.32;29.87;94728.66;5041194;28;20033;-84
2023/01/11 04:23:06;;;;;;;0.30;0.30;;;;;;;7.40;29.40;94737.13;5024910;28;20029;-84
2023/01/11 04:25:31;;;;;;;1.55;0.50;;;;;;;7.52;29.00;94737.03;5041084;28;20024;-84
2023/01/11 04:27:57;;;;;;;1.73;0.40;;;;;;;7.58;28.65;94741.28;5040878;28;20086;-84
2023/01/11 04:30:23;;;;;;;1.08;0.55;;;;;;;7.60;28.58;94739.22;5041017;28;20033;-84
2023/01/11 04:32:48;;;;;;;0.90;0.40;;;;;;;7.35;29.23;94746.44;5040925;28;20028;-84
2023/01/11 04:35:14;;;;;;;0.30;0.30;;;;;;;7.24;29.10;94741.31;5040808;28;20123;-84
2023/01/11 04:37:40;;;;;;;0.35;0.35;;;;;;;6.86;29.06;94743.56;5040756;28;20037;-84
2023/01/11 04:40:06;;;;;;;1.20;0.63;;;;;;;7.15;28.11;94759.16;5024606;28;20123;-84
2023/01/11 04:42:32;;;;;;;0.52;0.22;;;;;;;7.39;27.92;94748.56;5040598;28;20431;-84
2023/01/11 04:44:57;;;;;;;0.47;0.30;;;;;;;7.56;27.72;94748.56;5040956;28;20024;-84
2023/01/11 04:47:23;;;;;;;0.55;0.40;;;;;;;7.56;27.79;94741.53;5040907;28;20029;-84
2023/01/11 04:49:49;;;;;;;0.45;0.30;;;;;;;7.54;28.31;94743.59;5040880;28;20166;-84
2023/01/11 04:52:16;;;;;;;0.65;0.30;;;;;;;7.55;27.96;94742.56;5040737;28;20028;-85
2023/01/11 04:54:41;;;;;;;0.50;0.40;;;;;;;7.48;28.01;94745.34;5024068;28;20131;-84
2023/01/11 04:57:10;;;;;;;1.25;0.40;;;;;;;7.67;27.25;94747.69;5040399;28;20111;-85
2023/01/11 04:59:35;;;;;;;0.77;0.45;;;;;;;7.50;28.16;94745.09;5024373;28;20072;-85
2023/01/11 05:02:00;;;;;;;1.75;0.40;;;;;;;7.44;27.86;94752.03;5039134;28;20064;-84
2023/01/11 05:04:26;;;;;;;0.70;0.40;;;;;;;7.29;29.79;94750.00;5039600;28;20083;-84
2023/01/11 05:06:52;;;;;;;0.30;0.25;;;;;;;7.14;30.92;94760.94;5037865;28;20146;-84
2023/01/11 05:09:17;;;;;;;0.60;0.45;;;;;;;6.96;32.54;94748.16;5020453;28;20030;-84
2023/01/11 05:11:43;;;;;;;1.05;0.50;;;;;;;6.95;31.76;94754.38;5020280;28;20029;-84
2023/01/11 05:14:08;;;;;;;1.13;0.50;;;;;;;6.75;31.37;94756.38;5002792;28;20171;-84
2023/01/11 05:16:34;;;;;;;1.50;0.50;;;;;;;6.72;31.88;94754.25;5021036;28;20405;-84
2023/01/11 05:19:00;;;;;;;1.10;0.60;;;;;;;6.65;31.39;94756.19;5039722;28;20043;-84
2023/01/11 05:21:30;;;;;;;1.85;0.40;;;;;;;6.70;31.33;94745.09;5020173;28;20338;-84
2023/01/11 05:23:56;;;;;;;2.15;0.40;;;;;;;6.65;29.77;94743.16;5023447;28;20037;-84
2023/01/11 05:26:26;;;;;;;0.82;0.35;;;;;;;6.95;28.34;94749.94;5039755;28;20044;-84
2023/01/11 05:28:53;;;;;;;7.22;0.50;;;;;;;7.03;28.13;94744.38;5040111;28;20039;-84
2023/01/11 05:31:18;;;;;;;0.47;0.40;;;;;;;7.05;28.24;94741.53;5039814;28;20036;-84
2023/01/11 05:33:44;;;;;;;0.70;0.40;;;;;;;7.21;28.08;94745.16;5039677;28;20036;-84
2023/01/11 05:36:12;;;;;;;0.38;0.32;;;;;;;7.33;27.96;94738.06;5039453;28;20099;-84
2023/01/11 05:38:38;;;;;;;1.83;0.50;;;;;;;7.28;28.21;94738.00;5023291;28;20055;-84
2023/01/11 05:41:06;;;;;;;1.48;0.60;;;;;;;7.44;27.77;94739.00;5039683;28;20108;-84
2023/01/11 05:43:32;;;;;;;1.40;0.50;;;;;;;7.36;27.77;94732.38;5023347;28;20037;-84
2023/01/11 05:45:59;;;;;;;0.70;0.43;;;;;;;7.36;28.12;94740.19;5022950;28;20059;-85
2023/01/11 05:48:25;;;;;;;0.75;0.50;;;;;;;7.42;27.41;94738.44;5023214;28;20385;-85
2023/01/11 05:50:52;;;;;;;0.63;0.40;;;;;;;7.52;26.94;94743.03;5039810;28;20087;-84
2023/01/11 05:53:18;;;;;;;1.05;0.55;;;;;;;7.46;27.25;94744.78;5039314;28;20028;-83
2023/01/11 05:55:53;;;;;;;0.60;0.40;;;;;;;7.62;27.50;94743.19;5057313;28;20342;-85
2023/01/11 05:58:19;;;;;;;0.77;0.50;;;;;;;7.52;27.11;94740.41;5039366;28;20029;-85
2023/01/11 06:00:53;;;;;;;1.85;0.60;;;;;;;7.68;27.83;94736.22;5022985;28;20158;-85
2023/01/11 06:03:19;;;;;;;1.02;0.50;;;;;;;7.60;27.00;94734.00;5019489;28;20119;-85
2023/01/11 06:05:45;;;;;;;1.83;0.45;;;;;;;7.40;27.76;94737.91;5003246;28;20418;-85
2023/01/11 06:08:11;;;;;;;0.95;0.52;;;;;;;7.41;27.16;94729.06;5036971;28;20083;-85
2023/01/11 06:10:36;;;;;;;4.13;0.50;;;;;;;7.45;27.27;94735.38;5019146;28;20095;-85
2023/01/11 06:15:46;;;;;;;0.70;0.50;;;;;;;7.58;27.34;94728.25;5036810;28;20079;-85
2023/01/11 06:18:11;;;;;;;1.55;0.82;;;;;;;7.70;26.87;94733.38;5036878;28;20427;-85
2023/01/11 06:20:37;;;;;;;3.75;1.77;;;;;;;7.53;28.29;94729.00;5019083;28;20434;-85
2023/01/11 06:23:03;;;;;;;5.78;3.22;;;;;;;7.44;27.30;94738.22;5019398;28;20040;-84
2023/01/11 06:25:29;;;;;;;5.07;2.50;;;;;;;7.39;27.62;94738.94;5018838;28;20025;-84
2023/01/11 06:27:55;;;;;;;24.23;11.10;;;;;;;7.53;27.94;94731.59;5031720;28;20040;-84
2023/01/11 06:30:21;;;;;;;9.85;5.85;;;;;;;7.24;28.14;94725.66;5038843;28;20052;-84
2023/01/11 06:32:46;;;;;;;5.72;3.03;;;;;;;7.30;27.34;94719.50;5022517;28;20390;-84
2023/01/11 06:35:11;;;;;;;4.18;1.95;;;;;;;7.52;27.67;94713.56;5038795;28;20447;-84
2023/01/11 06:37:38;;;;;;;4.88;2.10;;;;;;;7.59;27.00;94711.56;5039534;28;20059;-84
2023/01/11 06:40:04;;;;;;;24.05;13.88;;;;;;;7.64;26.60;94714.28;5022231;28;20067;-84
2023/01/11 06:42:30;;;;;;;14.68;8.70;;;;;;;7.61;26.79;94712.91;5038494;28;20037;-84
2023/01/11 06:45:02;;;;;;;4.25;2.25;;;;;;;7.91;26.52;94710.97;5056470;28;20025;-84
2023/01/11 06:47:28;;;;;;;4.03;1.95;;;;;;;7.83;26.89;94712.19;5022365;28;20048;-84
2023/01/11 06:49:53;;;;;;;4.35;2.00;;;;;;;7.84;26.78;94705.13;5038505;28;20025;-84
2023/01/11 06:52:19;;;;;;;38.67;14.48;;;;;;;7.88;26.92;94711.44;5056296;28;20040;-84
2023/01/11 06:54:47;;;;;;;46.85;19.38;;;;;;;7.80;27.97;94709.25;5037671;28;20041;-84
2023/01/11 06:57:13;;;;;;;20.55;8.07;;;;;;;7.70;26.91;94708.09;5038564;28;20112;-84
2023/01/11 06:59:38;;;;;;;29.27;13.98;;;;;;;7.56;28.06;94701.63;5038535;28;20032;-84
2023/01/11 07:02:05;;;;;;;32.90;11.57;;;;;;;7.76;27.10;94707.13;5056251;28;20056;-84
2023/01/11 07:04:30;;;;;;;12.32;5.55;;;;;;;7.80;26.84;94707.44;5038407;28;20033;-83
2023/01/11 07:06:56;;;;;;;8.50;3.65;;;;;;;7.77;26.44;94707.91;5022084;28;20481;-83
2023/01/11 07:09:21;;;;;;;7.13;3.22;;;;;;;7.90;26.01;94702.34;5022195;28;20028;-83
2023/01/11 07:11:47;;;;;;;7.93;2.45;;;;;;;8.12;25.68;94696.38;5022278;28;20037;-83
2023/01/11 07:14:18;;;;;;;1.75;1.20;;;;;;;8.32;24.58;94693.19;5038307;28;20362;-83
2023/01/11 07:16:46;;;;;;;4.53;1.65;;;;;;;8.53;24.85;94701.28;5039223;28;20422;-83
2023/01/11 07:19:12;;;;;;;3.20;1.50;;;;;;;8.64;24.52;94694.31;5038439;28;20028;-83
2023/01/11 07:21:37;;;;;;;2.58;1.23;;;;;;;8.61;24.54;94690.41;5038283;28;20090;-83
2023/01/11 07:24:04;;;;;;;77.60;36.25;;;;;;;8.73;25.58;94692.84;5038293;28;20025;-83
2023/01/11 07:26:30;;;;;;;50.47;24.92;;;;;;;8.75;25.97;94692.59;5038084;28;20463;-83
2023/01/11 07:28:55;;;;;;;11.95;5.68;;;;;;;8.64;25.62;94699.53;5041189;28;20038;-83
2023/01/11 07:31:21;;;;;;;6.30;3.17;;;;;;;8.65;25.05;94697.72;5049910;28;20347;-82
2023/01/11 07:33:46;;;;;;;1.38;0.85;;;;;;;8.84;24.34;94706.78;5038153;28;20033;-83
2023/01/11 07:36:12;;;;;;;1.50;0.80;;;;;;;8.97;24.56;94699.59;5038268;28;20037;-83
2023/01/11 07:38:37;;;;;;;1.67;0.73;;;;;;;9.16;24.27;94694.78;5058640;28;20035;-83
2023/01/11 07:43:10;;;;;;;2.55;1.00;;;;;;;9.16;25.71;94702.63;5059695;28;20130;-83
2023/01/11 07:43:48;;;;;;;2.88;1.50;;;;;;;9.00;28.93;94712.94;5044648;28;20056;-83
2023/01/11 07:46:13;;;;;;;3.22;1.10;;;;;;;9.17;25.19;94712.03;5042045;28;20029;-83
2023/01/11 07:48:39;;;;;;;1.17;0.60;;;;;;;9.31;25.27;94712.41;5041752;28;20037;-83
2023/01/11 07:51:04;;;;;;;5.45;3.38;;;;;;;9.33;25.63;94718.19;5041730;28;20423;-83
2023/01/11 07:53:30;;;;;;;5.43;3.17;;;;;;;9.40;25.88;94715.34;5041623;28;20075;-83
2023/01/11 07:55:55;;;;;;;2.80;2.03;;;;;;;9.37;26.41;94724.47;5041504;28;20033;-83
2023/01/11 07:58:21;;;;;;;1.63;1.20;;;;;;;9.34;26.32;94727.59;5024981;28;20033;-83
2023/01/11 08:00:46;;;;;;;1.38;1.00;;;;;;;9.32;26.81;94725.22;5041527;28;20353;-83
2023/01/11 08:03:12;;;;;;;2.55;1.80;;;;;;;9.36;26.98;94727.34;5041483;28;20033;-83
2023/01/11 08:05:38;;;;;;;2.30;1.25;;;;;;;9.37;28.19;94721.88;5041417;28;20423;-83
2023/01/11 08:08:04;;;;;;;4.60;1.80;;;;;;;9.47;28.28;94721.94;5041525;28;20031;-83
2023/01/11 08:10:30;;;;;;;9.38;4.85;;;;;;;9.54;27.07;94724.34;5041430;28;20437;-83
2023/01/11 08:15:44;;;;;;;4.20;2.38;;;;;;;9.85;27.11;94726.34;5043956;28;20040;-83
2023/01/11 08:18:11;;;;;;;2.83;1.23;;;;;;;9.93;28.57;94725.09;5041335;28;20029;-83
2023/01/11 08:20:37;;;;;;;1.60;0.70;;;;;;;9.93;29.20;94733.75;5024906;28;20032;-83
2023/01/11 08:23:04;;;;;;;3.40;1.02;;;;;;;10.02;28.57;94732.19;5041089;28;20020;-83
2023/01/11 08:25:30;;;;;;;1.45;0.60;;;;;;;10.13;27.16;94722.59;5041186;28;20021;-83
2023/01/11 08:27:58;;;;;;;3.83;2.80;;;;;;;10.35;25.95;94723.47;5040849;28;20078;-83
2023/01/11 08:30:24;;;;;;;6.43;3.33;;;;;;;10.50;26.51;94720.13;5041080;28;20020;-83
2023/01/11 08:32:49;;;;;;;5.90;3.38;;;;;;;10.64;26.71;94726.44;5041042;28;20048;-83
2023/01/11 08:35:15;;;;;;;7.10;4.82;;;;;;;10.80;28.37;94721.22;5024527;28;20029;-83
2023/01/11 08:37:40;;;;;;;3.67;2.55;;;;;;;10.91;29.09;94724.69;5040737;28;20083;-83
2023/01/11 08:40:06;;;;;;;6.28;3.50;;;;;;;10.93;30.22;94722.59;5040830;28;20070;-83
2023/01/11 08:42:32;;;;;;;2.10;1.15;;;;;;;10.84;28.02;94730.94;5041143;28;20063;-83
2023/01/11 08:44:58;;;;;;;3.25;1.00;;;;;;;10.84;28.21;94732.78;5040919;28;20022;-83
2023/01/11 08:47:24;;;;;;;2.55;0.95;;;;;;;10.82;31.54;94743.53;5024012;28;20473;-83
2023/01/11 08:49:49;;;;;;;10.48;5.40;;;;;;;10.91;31.40;94737.78;5040398;28;20358;-83
2023/01/11 08:52:15;;;;;;;34.20;18.02;;;;;;;10.93;31.37;94733.06;5024516;28;20025;-83
2023/01/11 08:54:40;;;;;;;4.75;2.58;;;;;;;10.96;31.46;94740.41;5023832;28;20388;-83
2023/01/11 08:57:06;;;;;;;10.23;6.70;;;;;;;10.93;31.21;94751.41;5040334;28;20024;-83
2023/01/11 08:59:32;;;;;;;5.72;4.40;;;;;;;10.90;29.81;94747.47;5024160;28;20021;-83
2023/01/11 09:01:57;;;;;;;7.43;4.03;;;;;;;10.94;29.54;94747.75;5040305;28;20120;-83
2023/01/11 09:04:23;;;;;;;44.25;24.75;;;;;;;10.99;29.69;94747.75;5040329;28;20075;-83
2023/01/11 09:06:49;;;;;;;25.45;15.02;;;;;;;10.97;28.08;94750.63;5024031;28;20024;-83
2023/01/11 09:09:15;;;;;;;12.00;6.40;;;;;;;11.08;28.55;94746.19;5040234;28;20031;-84
2023/01/11 09:11:53;;;;;;;5.88;3.53;;;;;;;11.13;27.35;94751.44;5040280;28;20095;-83
2023/01/11 09:14:19;;;;;;;3.00;1.50;;;;;;;11.29;27.63;94748.81;5025401;28;20029;-83
2023/01/11 09:16:44;;;;;;;20.30;11.20;;;;;;;11.43;28.66;94749.88;5040047;28;20031;-83
2023/01/11 09:19:10;;;;;;;12.95;7.30;;;;;;;11.64;29.57;94747.25;5040064;28;20033;-84
2023/01/11 09:21:35;;;;;;;5.30;2.92;;;;;;;11.84;29.92;94766.66;5057767;28;20056;-84
2023/01/11 09:24:02;;;;;;;6.43;3.70;;;;;;;11.99;30.28;94766.63;5023692;28;20036;-83
2023/01/11 09:26:28;;;;;;;43.25;22.40;;;;;;;12.13;29.87;94763.47;5039966;28;20025;-83
2023/01/11 09:28:54;;;;;;;40.30;20.67;;;;;;;12.29;30.28;94756.34;5040026;28;20449;-83
2023/01/11 09:31:19;;;;;;;16.42;9.02;;;;;;;12.43;29.98;94757.34;5039887;28;20033;-84
2023/01/11 09:33:44;;;;;;;10.25;6.03;;;;;;;12.58;28.94;94764.34;5057476;28;20036;-84
2023/01/11 09:36:10;;;;;;;2.72;1.98;;;;;;;12.66;27.87;94755.13;5039645;28;20040;-83
2023/01/11 09:38:38;;;;;;;1.52;1.10;;;;;;;12.80;27.84;94744.00;5039820;28;20457;-83
2023/01/11 09:41:21;;;;;;;12.10;6.75;;;;;;;13.05;28.34;94737.81;5040031;28;20350;-83
2023/01/11 09:43:59;;;;;;;4.53;2.58;;;;;;;13.04;26.97;94740.72;5040408;28;20036;-83
2023/01/11 09:46:26;;;;;;;1.35;0.68;;;;;;;13.03;27.17;94747.81;5023471;28;20023;-83
2023/01/11 09:48:58;;;;;;;1.60;0.60;;;;;;;13.04;27.86;94744.13;5039864;28;20031;-83
2023/01/11 09:51:28;;;;;;;1.27;0.70;;;;;;;12.96;27.77;94739.47;5039716;28;20033;-84
2023/01/11 09:53:56;;;;;;;1.85;0.60;;;;;;;12.94;27.97;94741.59;5039543;28;20346;-84
2023/01/11 09:56:24;;;;;;;1.88;0.70;;;;;;;12.98;28.24;94735.50;5039595;28;20035;-83
2023/01/11 09:59:06;;;;;;;2.08;0.80;;;;;;;12.95;27.86;94745.78;5039323;28;20037;-84
2023/01/11 10:01:48;;;;;;;1.25;0.70;;;;;;;12.89;27.87;94745.03;5038811;28;20118;-84
2023/01/11 10:04:32;;;;;;;2.03;0.70;;;;;;;12.86;29.04;94740.31;5057040;28;20070;-84
2023/01/11 10:07:22;;;;;;;2.55;0.75;;;;;;;12.81;28.08;94735.88;5023182;28;20036;-84
2023/01/11 10:09:47;;;;;;;1.48;0.50;;;;;;;12.72;28.15;94738.28;5057012;28;20102;-84
2023/01/11 10:12:34;;;;;;;1.80;0.80;;;;;;;12.86;28.54;94733.19;5039302;28;20052;-83
2023/01/11 10:15:12;;;;;;;1.38;0.65;;;;;;;12.91;29.53;94747.38;5039217;28;20339;-84
2023/01/11 10:17:41;;;;;;;1.25;0.70;;;;;;;12.73;30.89;94741.69;5056739;28;20056;-84
2023/01/11 10:20:12;;;;;;;1.10;0.68;;;;;;;12.91;30.11;94740.28;5056824;28;20033;-84
2023/01/11 10:22:45;;;;;;;1.45;0.82;;;;;;;13.09;28.90;94738.84;5056733;28;20163;-84
2023/01/11 10:25:20;;;;;;;11.23;5.35;;;;;;;13.15;28.83;94729.84;5023013;28;20349;-84
2023/01/11 10:28:00;;;;;;;78.75;35.63;;;;;;;13.18;27.50;94736.41;5039279;28;20029;-84
2023/01/11 10:30:56;;;;;;;375.75;149.75;;;;;;;13.28;27.58;94736.34;5039241;28;20082;-84
2023/01/11 10:42:00;;;;;;;82.07;34.67;;;;;;;13.32;28.50;94714.75;5019318;28;20037;-84
2023/01/11 10:44:36;;;;;;;92.70;39.53;;;;;;;13.45;28.65;94711.50;5019773;28;20056;-84
2023/01/11 10:47:02;;;;;;;35.88;15.60;;;;;;;13.54;28.57;94717.72;5049196;28;20385;-84
2023/01/11 10:49:51;;;;;;;94.00;43.35;;;;;;;13.77;28.17;94712.00;5022455;28;20033;-84
2023/01/11 10:52:24;;;;;;;27.25;12.55;;;;;;;14.03;27.94;94717.00;5038721;28;20028;-84
2023/01/11 10:54:54;;;;;;;;;;;;;;;14.33;28.64;94721.16;5056802;28;20124;-84
2023/01/11 10:57:42;;;;;;;42.78;19.35;;;;;;;14.32;30.54;94708.25;5039179;28;19913;-84
2023/01/11 11:00:20;;;;;;;25.42;12.48;;;;;;;14.10;31.26;94712.19;5038653;28;20037;-84
2023/01/11 11:03:23;;;;;;;29.88;13.70;;;;;;;14.17;30.37;94709.22;5022100;28;20029;-84
2023/01/11 11:06:12;;;;;;;28.02;11.10;;;;;;;13.96;30.34;94717.34;5038873;28;20033;-84
2023/01/11 11:08:49;;;;;;;31.23;12.82;;;;;;;13.87;30.79;94711.13;5022202;28;20033;-84
2023/01/11 11:11:25;;;;;;;113.13;47.30;;;;;;;13.73;31.25;94703.09;5056780;28;20025;-83
2023/01/11 11:14:03;;;;;;;24.13;10.30;;;;;;;13.75;31.67;94699.13;5042672;28;20033;-84
2023/01/11 11:16:41;;;;;;;24.88;10.00;;;;;;;13.81;30.70;94702.50;5026232;28;20028;-84
2023/01/11 11:19:09;;;;;;;26.60;9.95;;;;;;;13.77;30.39;94699.63;5060088;28;20025;-84
2023/01/11 11:21:38;;;;;;;14.63;6.00;;;;;;;13.74;30.89;94699.38;5042384;28;20429;-83
2023/01/11 11:24:20;;;;;;;20.83;9.25;;;;;;;14.18;31.18;94703.66;5042558;28;20021;-84
2023/01/11 11:26:50;;;;;;;69.50;24.50;;;;;;;14.45;30.59;94701.53;5042226;28;20346;-84
2023/01/11 11:29:27;;;;;;;130.77;47.58;;;;;;;14.88;30.21;94692.78;5026041;28;20338;-84
2023/01/11 11:31:53;;;;;;;149.43;56.55;;;;;;;14.94;29.83;94695.06;5042920;28;20028;-84
2023/01/11 11:34:20;;;;;;;112.15;44.22;;;;;;;15.19;29.46;94697.59;5025548;28;20028;-84
2023/01/11 11:36:47;;;;;;;20.10;8.77;;;;;;;15.37;28.83;94696.00;5041879;28;20063;-84
2023/01/11 11:39:28;;;;;;;26.95;10.70;;;;;;;15.58;29.05;94693.03;5060030;28;20430;-84
2023/01/11 11:41:56;;;;;;;36.78;14.82;;;;;;;15.73;29.11;94684.03;5042076;28;20044;-84
2023/01/11 11:44:25;;;;;;;43.83;17.70;;;;;;;15.54;29.36;94683.03;5025595;28;20025;-84
2023/01/11 11:47:14;;;;;;;39.70;17.05;;;;;;;16.00;29.27;94675.41;5041716;28;20055;-84
2023/01/11 11:49:41;;;;;;;15.68;6.90;;;;;;;15.86;29.31;94678.00;5041995;28;20140;-84
2023/01/11 11:52:14;;;;;;;37.97;13.52;;;;;;;16.07;29.58;94677.66;5041809;28;20024;-83
2023/01/11 11:54:51;;;;;;;74.53;26.85;;;;;;;15.91;29.19;94662.06;5025328;28;20715;-84
2023/01/11 11:57:26;;;;;;;60.45;21.10;;;;;;;16.20;29.00;94668.91;5041767;28;20025;-84
2023/01/11 12:00:03;;;;;;;14.13;4.90;;;;;;;15.84;30.21;94659.00;5025255;28;20025;-84
2023/01/11 12:02:30;;;;;;;42.72;16.38;;;;;;;16.00;29.21;94656.09;5025263;28;20056;-84
2023/01/11 12:04:57;;;;;;;95.03;36.47;;;;;;;15.74;28.82;94657.34;5041480;28;20467;-84
2023/01/11 12:07:26;;;;;;;48.38;18.65;;;;;;;15.74;29.55;94651.28;5041583;28;20056;-84
2023/01/11 12:09:58;;;;;;;41.45;16.77;;;;;;;15.76;28.30;94657.84;5025161;28;20025;-84
2023/01/11 12:12:24;;;;;;;27.83;10.40;;;;;;;15.44;28.61;94659.47;5041389;28;20028;-84